Capital City Airport
KLAN : rendu visible

Aérodrome :











RETROUVEZ-NOUS SUR...

 
LOGIN :

S'inscrire | Disclaimer

   EN    FR    IT 

 









Légende :    VFR   VFR Marginal   IFR   IFR Intensif   IFR Très Intensif
Visi : 
Plafond : 
>= 8 km
>= 3000ft
5 à 8 km
1000 à 3000 ft
1500m à 5 km
500 à 1000 ft
800 à 1500m
200 à 500 ft
< 800m
< 200 ft
Symboles :   Orages  Brouillard  Fortes neiges  Fortes précipitations  Vent > 20 kt






- Altitude de l'aérodrome : 861 ft
- Code IATA : LAN


KLAN - Capital City

DERNIER METAR :
  • 190128Z 25022G33KT 3/4SM R28L/P6000FT -SN BR FEW008 OVC012 M01/M03 A2967 RMK AO2 PK WND 26033/0126 P0002 T10061028 $

METARs EXPIRÉS :
  • 190116Z 26016G25KT 1SM R28L/P6000FT -SN BR FEW008 BKN014 OVC027 00/M02 A2967 RMK AO2 PK WND 25030/0058 P0000 T00001022 $
  • 190109Z 26019G29KT 1 1/4SM -SN BR BKN013 BKN019 OVC027 00/M02 A2966 RMK AO2 PK WND 25030/0058 P0000 T00001022 $
  • 190053Z 26017G27KT 2 1/2SM -SN BR BKN013 OVC021 00/M02 A2966 RMK AO2 PK WND 25027/0052 SLP052 P0001 T00001022 $
  • 190011Z 26016G25KT 2SM -SN BR OVC013 00/M02 A2965 RMK AO2 P0000 T00001022 $
  • 182353Z 26015KT 3SM -SN BR BKN011 OVC017 00/M02 A2964 RMK AO2 PK WND 27026/2317 UPB23E36SNB02E17B36 SLP048 P0000 60006 T00001022 10028 20000 53026 $
  • 182345Z 25013KT 3SM -SN BR BKN011 OVC017 00/M02 A2964 RMK AO2 PK WND 27026/2317 UPB23E36SNB02E17B36 P0000 T00001022 $
  • 182253Z 26018G26KT 10SM BKN019 OVC024 01/M02 A2961 RMK AO2 PK WND 25033/2157 SLP037 T00061022 $

TAF KLAN
Valide du 19 à 01h jusqu'au 20 à 00h UTC


190033Z 1901/1924 27016G26KT 2SM -SHSN OVC015
FM191100 25021G28KT 3SM -SHSN BLSN OVC015
FM191400 28013G20KT 4SM -SHSN BLSN OVC015
FM192000 31012KT P6SM -SHSN OVC015



MET'MAP, la Météo Aéronautique d'un coup d'oeil ! - Copyright ORBIFLY Décembre 2007 - Disclaimer

ORBIFLY MET'MAP TEAM :

Programmation & Développement : Alexandra Zaïnal
Sur une idée originale de : Baudouin d'Aumeries
Assistance à la programmation : Marc-Olivier Méhu
Soutien technique & logistique : Manuel Goepfert

Contact : metmap@orbifly.com




SOURCES & CREDITS :

   NOAA       Earth
Advisory